createdAt,value
2022-11-17T00:01:26.460Z,3.40
2022-11-17T00:04:31.052Z,4.53
2022-11-17T00:07:32.797Z,4.93
2022-11-17T00:10:34.537Z,5.20
2022-11-17T00:13:54.779Z,5.03
2022-11-17T00:16:56.416Z,4.05
2022-11-17T00:20:16.527Z,5.00
2022-11-17T00:23:18.109Z,3.10
2022-11-17T00:26:21.527Z,6.07
2022-11-17T00:29:23.199Z,6.97
2022-11-17T00:32:43.367Z,3.63
2022-11-17T00:35:49.644Z,6.63
2022-11-17T00:38:51.267Z,6.28
2022-11-17T00:41:52.848Z,4.85
2022-11-17T00:44:54.364Z,8.13
2022-11-17T00:47:55.993Z,7.85
2022-11-17T00:50:57.587Z,7.28
2022-11-17T00:53:59.518Z,5.15
2022-11-17T00:57:01.179Z,5.72
2022-11-17T01:00:02.866Z,7.45
2022-11-17T01:03:04.452Z,5.95
2022-11-17T01:06:12.876Z,15.95
2022-11-17T01:09:19.574Z,4.53
2022-11-17T01:15:22.621Z,5.88
2022-11-17T01:18:24.228Z,5.80
2022-11-17T01:21:26.504Z,8.23
2022-11-17T01:24:28.155Z,5.53
2022-11-17T01:27:29.706Z,6.28
2022-11-17T01:30:31.331Z,6.47
2022-11-17T01:33:33.464Z,6.28
2022-11-17T01:37:08.803Z,5.45
2022-11-17T01:40:12.225Z,6.07
2022-11-17T01:43:13.877Z,3.38
2022-11-17T01:46:15.455Z,6.28
2022-11-17T01:49:17.047Z,8.27
2022-11-17T01:52:18.651Z,5.20
2022-11-17T01:55:21.161Z,9.48
2022-11-17T01:58:26.874Z,8.70
2022-11-17T02:01:28.583Z,8.65
2022-11-17T02:04:36.257Z,6.90
2022-11-17T02:07:39.496Z,6.43
2022-11-17T02:10:44.759Z,6.70
2022-11-17T02:13:51.980Z,5.90
2022-11-17T02:16:53.683Z,5.78
2022-11-17T02:20:05.434Z,6.25
2022-11-17T02:23:21.503Z,6.13
2022-11-17T02:26:26.201Z,8.95
2022-11-17T02:29:32.237Z,6.40
2022-11-17T02:32:41.660Z,5.05
2022-11-17T02:36:18.644Z,6.43
2022-11-17T02:39:22.859Z,6.38
2022-11-17T02:42:57.397Z,8.68
2022-11-17T02:45:59.048Z,5.13
2022-11-17T02:49:03.548Z,6.22
2022-11-17T02:52:06.009Z,5.35
2022-11-17T02:55:08.786Z,6.72
2022-11-17T02:58:13.568Z,8.63
2022-11-17T03:01:24.453Z,5.03
2022-11-17T03:04:29.165Z,6.40
2022-11-17T03:07:36.886Z,9.45
2022-11-17T03:10:57.054Z,4.65
2022-11-17T03:14:05.306Z,7.57
2022-11-17T03:17:13.132Z,6.05
2022-11-17T03:20:30.973Z,7.60
2022-11-17T03:23:47.023Z,5.57
2022-11-17T03:26:53.515Z,4.38
2022-11-17T03:29:58.038Z,4.78
2022-11-17T03:33:05.257Z,6.28
2022-11-17T03:36:14.815Z,7.00
2022-11-17T03:39:19.258Z,3.92
2022-11-17T03:42:23.293Z,5.03
2022-11-17T03:45:35.082Z,4.55
2022-11-17T03:48:59.868Z,4.07
2022-11-17T03:52:01.850Z,4.20
2022-11-17T03:55:03.606Z,6.30
2022-11-17T03:58:07.598Z,3.03
2022-11-17T04:01:09.421Z,3.05
2022-11-17T04:04:20.381Z,3.08
2022-11-17T04:07:21.993Z,5.43
2022-11-17T04:10:26.289Z,2.58
2022-11-17T04:13:46.698Z,4.28
2022-11-17T04:16:48.249Z,4.53
2022-11-17T04:19:49.818Z,1.95
2022-11-17T04:23:07.152Z,3.92
2022-11-17T04:26:27.803Z,3.42
2022-11-17T04:29:29.331Z,4.13
2022-11-17T04:32:30.907Z,3.63
2022-11-17T04:35:32.640Z,4.07
2022-11-17T04:38:34.343Z,5.25
2022-11-17T04:41:54.547Z,4.88
2022-11-17T04:44:56.169Z,4.43
2022-11-17T04:47:57.726Z,4.57
2022-11-17T04:50:59.343Z,5.30
2022-11-17T04:54:01.362Z,3.42
2022-11-17T04:57:02.971Z,4.90
2022-11-17T05:00:04.813Z,5.78
2022-11-17T05:03:06.472Z,5.95
2022-11-17T05:06:08.914Z,3.40
2022-11-17T05:09:12.063Z,3.45
2022-11-17T05:12:32.137Z,6.15
2022-11-17T05:15:52.077Z,22.02
2022-11-17T05:18:53.671Z,2.50
2022-11-17T05:21:55.852Z,3.58
2022-11-17T05:24:57.529Z,4.10
2022-11-17T05:27:59.072Z,2.90
2022-11-17T05:31:00.669Z,6.85
2022-11-17T05:34:02.857Z,4.03
2022-11-17T05:37:04.443Z,2.30
2022-11-17T05:40:06.356Z,4.05
2022-11-17T05:43:07.957Z,3.97
2022-11-17T05:46:09.753Z,2.78
2022-11-17T05:49:11.555Z,4.93
2022-11-17T05:52:13.125Z,5.03
2022-11-17T05:55:14.737Z,7.22
2022-11-17T05:58:22.566Z,5.13
2022-11-17T06:01:24.204Z,5.80
2022-11-17T06:04:25.988Z,5.60
2022-11-17T06:07:27.673Z,6.90
2022-11-17T06:10:29.343Z,8.18
2022-11-17T06:13:30.922Z,6.68
2022-11-17T06:16:34.787Z,3.08
2022-11-17T06:19:39.984Z,4.65
2022-11-17T06:22:47.044Z,4.07
2022-11-17T06:25:49.840Z,4.10
2022-11-17T06:28:51.698Z,3.88
2022-11-17T06:31:53.688Z,3.97
2022-11-17T06:34:56.529Z,6.65
2022-11-17T06:37:58.157Z,0.73
2022-11-17T06:40:59.858Z,3.25
2022-11-17T06:44:01.437Z,2.17
2022-11-17T06:47:03.005Z,3.20
2022-11-17T06:50:05.074Z,1.45
2022-11-17T06:53:07.822Z,3.83
2022-11-17T06:56:09.692Z,2.22
2022-11-17T06:59:11.332Z,1.65
2022-11-17T07:02:12.918Z,4.20
2022-11-17T07:05:14.529Z,2.75
2022-11-17T07:08:16.245Z,0.82
2022-11-17T07:11:18.082Z,4.57
2022-11-17T07:14:20.037Z,2.67
2022-11-17T07:17:21.613Z,4.47
2022-11-17T07:20:23.230Z,3.13
2022-11-17T07:23:24.810Z,6.60
2022-11-17T07:26:26.392Z,3.33
2022-11-17T07:29:28.937Z,5.78
2022-11-17T07:32:31.474Z,3.85
2022-11-17T07:35:35.381Z,8.25
2022-11-17T07:38:38.364Z,5.13
2022-11-17T07:41:40.267Z,4.38
2022-11-17T07:44:41.855Z,7.40
2022-11-17T07:47:43.487Z,6.72
2022-11-17T07:50:45.772Z,4.35
2022-11-17T07:53:47.525Z,4.00
2022-11-17T07:56:49.147Z,6.80
2022-11-17T07:59:50.652Z,2.95
2022-11-17T08:02:52.342Z,6.18
2022-11-17T08:05:53.987Z,5.30
2022-11-17T08:08:55.650Z,4.93
2022-11-17T08:11:58.387Z,3.13
2022-11-17T08:15:00.016Z,3.30
2022-11-17T08:18:01.789Z,3.88
2022-11-17T08:21:16.486Z,6.82
2022-11-17T08:24:18.533Z,7.57
2022-11-17T08:27:20.149Z,7.13
2022-11-17T08:30:21.815Z,5.13
2022-11-17T08:33:23.409Z,4.85
2022-11-17T08:36:25.761Z,16.40
2022-11-17T08:39:27.333Z,5.22
2022-11-17T08:42:28.978Z,5.43
2022-11-17T08:45:30.774Z,6.70
2022-11-17T08:48:33.267Z,6.45
2022-11-17T08:51:35.243Z,6.85
2022-11-17T08:54:39.802Z,8.60
2022-11-17T08:57:41.413Z,8.75
2022-11-17T09:00:43.135Z,7.00
2022-11-17T09:03:45.747Z,7.45
2022-11-17T09:06:47.374Z,7.68
2022-11-17T09:09:49.098Z,8.13
2022-11-17T09:12:50.722Z,8.65
2022-11-17T09:15:52.262Z,8.45
2022-11-17T09:18:55.982Z,7.95
2022-11-17T09:21:57.570Z,7.28
2022-11-17T09:24:59.155Z,10.10
2022-11-17T09:28:01.839Z,5.68
2022-11-17T09:31:07.250Z,7.00
2022-11-17T09:34:08.878Z,9.48
2022-11-17T09:37:10.488Z,13.35
2022-11-17T09:40:16.399Z,5.18
2022-11-17T09:43:26.718Z,8.05
2022-11-17T09:46:46.910Z,6.60
2022-11-17T09:49:58.681Z,9.90
2022-11-17T09:53:12.958Z,6.00
2022-11-17T09:56:14.919Z,7.88
2022-11-17T09:59:18.218Z,8.93
2022-11-17T10:02:20.452Z,7.30
2022-11-17T10:05:27.615Z,8.25
2022-11-17T10:08:41.700Z,7.15
2022-11-17T10:11:44.274Z,7.07
2022-11-17T10:14:46.285Z,7.13
2022-11-17T10:17:47.863Z,6.70
2022-11-17T10:20:49.473Z,7.38
2022-11-17T10:23:56.385Z,4.45
2022-11-17T10:26:57.939Z,5.35
2022-11-17T10:30:04.941Z,7.28
2022-11-17T10:33:06.629Z,8.98
2022-11-17T10:36:15.452Z,5.53
2022-11-17T10:39:37.362Z,7.05
2022-11-17T10:42:39.628Z,5.25
2022-11-17T10:45:52.348Z,3.80
2022-11-17T10:49:01.588Z,9.70
2022-11-17T10:52:06.229Z,7.03
2022-11-17T10:55:17.529Z,8.10
2022-11-17T10:58:29.322Z,5.25
2022-11-17T11:01:35.359Z,6.88
2022-11-17T11:04:40.840Z,10.65
2022-11-17T11:07:42.953Z,3.40
2022-11-17T11:10:47.109Z,5.45
2022-11-17T11:13:53.807Z,4.35
2022-11-17T11:19:56.982Z,5.20
2022-11-17T11:23:04.491Z,4.20
2022-11-17T11:26:24.841Z,3.65
2022-11-17T11:29:30.404Z,3.05
2022-11-17T11:32:31.944Z,3.00
2022-11-17T11:35:39.863Z,10.07
2022-11-17T11:38:50.035Z,5.93
2022-11-17T11:41:54.807Z,5.53
2022-11-17T11:44:56.551Z,2.35
2022-11-17T11:48:07.103Z,3.10
2022-11-17T11:51:08.620Z,6.47
2022-11-17T11:54:13.825Z,5.43
2022-11-17T11:57:16.790Z,8.18
2022-11-17T12:00:18.697Z,8.60
2022-11-17T12:03:24.933Z,5.90
2022-11-17T12:06:42.671Z,9.85
2022-11-17T12:09:44.258Z,2.35
2022-11-17T12:12:46.544Z,9.35
2022-11-17T12:15:48.108Z,6.20
2022-11-17T12:18:49.698Z,8.30
2022-11-17T12:21:54.925Z,3.83
2022-11-17T12:24:57.754Z,7.43
2022-11-17T12:28:18.100Z,8.88
2022-11-17T12:31:25.580Z,8.70
2022-11-17T12:34:35.746Z,8.75
2022-11-17T12:37:37.389Z,7.70
2022-11-17T12:40:38.937Z,6.40
2022-11-17T12:43:40.582Z,4.40
2022-11-17T12:46:44.323Z,0.98
2022-11-17T12:49:59.531Z,4.85
2022-11-17T12:53:09.905Z,8.45
2022-11-17T12:56:21.358Z,9.27
2022-11-17T12:59:25.478Z,6.95
2022-11-17T13:02:33.001Z,12.13
2022-11-17T13:05:35.717Z,10.52
2022-11-17T13:08:37.405Z,7.95
2022-11-17T13:11:39.066Z,11.10
2022-11-17T13:14:55.257Z,13.55
2022-11-17T13:17:57.258Z,8.07
2022-11-17T13:20:59.606Z,10.95
2022-11-17T13:24:01.305Z,8.32
2022-11-17T13:27:07.388Z,10.43
2022-11-17T13:30:12.974Z,11.35
2022-11-17T13:33:19.800Z,11.00
2022-11-17T13:36:24.909Z,10.50
2022-11-17T13:39:29.699Z,13.43
2022-11-17T13:42:33.195Z,7.30
2022-11-17T13:45:37.736Z,9.93
2022-11-17T13:48:40.620Z,12.30
2022-11-17T13:51:43.531Z,8.52
2022-11-17T13:54:45.247Z,11.93
2022-11-17T13:57:54.968Z,12.65
2022-11-17T14:00:57.956Z,8.27
2022-11-17T14:04:19.483Z,9.32
2022-11-17T14:07:29.714Z,15.10
2022-11-17T14:10:36.669Z,11.65
2022-11-17T14:13:41.088Z,10.52
2022-11-17T14:16:42.704Z,14.70
2022-11-17T14:19:44.617Z,10.75
2022-11-17T14:23:07.480Z,10.05
2022-11-17T14:26:18.277Z,11.95
2022-11-17T14:29:19.839Z,11.30
2022-11-17T14:32:21.420Z,11.55
2022-11-17T14:35:23.080Z,10.20
2022-11-17T14:38:24.743Z,11.80
2022-11-17T14:41:26.343Z,10.57
2022-11-17T14:44:28.197Z,11.50
2022-11-17T14:47:29.743Z,11.40
2022-11-17T14:50:31.858Z,13.27
2022-11-17T14:53:33.594Z,15.70
2022-11-17T14:56:35.179Z,8.85
2022-11-17T14:59:36.779Z,9.90
2022-11-17T15:02:38.311Z,12.35
2022-11-17T15:05:43.558Z,10.65
2022-11-17T15:08:45.259Z,15.10
2022-11-17T15:11:46.844Z,13.30
2022-11-17T15:14:48.711Z,10.55
2022-11-17T15:17:50.301Z,15.10
2022-11-17T15:21:01.975Z,10.38
2022-11-17T15:24:04.197Z,17.90
2022-11-17T15:27:05.732Z,16.02
2022-11-17T15:30:07.750Z,16.02
2022-11-17T15:33:09.272Z,11.70
2022-11-17T15:36:16.615Z,9.82
2022-11-17T15:39:18.710Z,8.80
2022-11-17T15:42:20.508Z,12.25
2022-11-17T15:45:22.174Z,10.85
2022-11-17T15:48:23.782Z,8.20
2022-11-17T15:51:26.177Z,10.38
2022-11-17T15:54:27.801Z,9.98
2022-11-17T15:57:29.510Z,7.18
2022-11-17T16:00:33.630Z,9.07
2022-11-17T16:03:35.393Z,13.80
2022-11-17T16:06:38.406Z,11.57
2022-11-17T16:09:39.990Z,12.05
2022-11-17T16:12:41.558Z,8.57
2022-11-17T16:15:43.112Z,14.85
2022-11-17T16:18:44.906Z,9.27
2022-11-17T16:21:46.496Z,12.65
2022-11-17T16:24:48.110Z,7.90
2022-11-17T16:27:49.709Z,10.60
2022-11-17T16:30:51.415Z,15.82
2022-11-17T16:33:53.932Z,9.95
2022-11-17T16:36:55.642Z,10.20
2022-11-17T16:39:57.220Z,8.88
2022-11-17T16:43:01.592Z,9.95
2022-11-17T16:46:17.011Z,8.10
2022-11-17T16:49:19.647Z,12.82
2022-11-17T16:52:21.523Z,9.25
2022-11-17T16:55:23.052Z,9.60
2022-11-17T16:58:24.640Z,10.40
2022-11-17T17:01:27.786Z,11.60
2022-11-17T17:04:30.573Z,9.63
2022-11-17T17:07:32.230Z,11.27
2022-11-17T17:10:34.041Z,10.55
2022-11-17T17:13:35.883Z,7.95
2022-11-17T17:16:38.147Z,8.90
2022-11-17T17:19:39.736Z,9.68
2022-11-17T17:22:41.230Z,7.68
2022-11-17T17:25:42.811Z,13.65
2022-11-17T17:28:45.506Z,10.45
2022-11-17T17:31:47.092Z,10.18
2022-11-17T17:34:48.647Z,12.40
2022-11-17T17:37:50.261Z,14.77
2022-11-17T17:40:51.841Z,11.25
2022-11-17T17:43:54.758Z,14.40
2022-11-17T17:46:57.850Z,17.27
2022-11-17T17:49:59.473Z,13.27
2022-11-17T17:53:01.123Z,16.48
2022-11-17T17:56:04.462Z,12.90
2022-11-17T17:59:05.998Z,8.75
2022-11-17T18:02:08.766Z,8.25
2022-11-17T18:05:10.308Z,11.88
2022-11-17T18:08:12.144Z,10.52
2022-11-17T18:11:16.391Z,11.27
2022-11-17T18:14:21.117Z,10.52
2022-11-17T18:17:22.672Z,11.90
2022-11-17T18:20:24.306Z,12.02
2022-11-17T18:23:27.362Z,11.35
2022-11-17T18:26:30.347Z,9.77
2022-11-17T18:29:31.919Z,7.28
2022-11-17T18:32:33.539Z,7.97
2022-11-17T18:35:35.245Z,13.60
2022-11-17T18:38:37.593Z,14.60
2022-11-17T18:41:39.262Z,7.93
2022-11-17T18:44:40.825Z,17.90
2022-11-17T18:47:42.394Z,60.65
2022-11-17T18:51:17.411Z,27.50
2022-11-17T18:54:05.962Z,38.65
2022-11-17T18:57:07.801Z,17.63
2022-11-17T19:00:09.614Z,11.63
2022-11-17T19:03:11.164Z,15.70
2022-11-17T19:06:13.670Z,17.48
2022-11-17T19:09:16.281Z,18.75
2022-11-17T19:12:19.000Z,15.02
2022-11-17T19:15:21.065Z,14.00
2022-11-17T19:18:22.803Z,20.80
2022-11-17T19:21:26.344Z,14.57
2022-11-17T19:24:27.903Z,18.15
2022-11-17T19:27:29.534Z,12.80
2022-11-17T19:30:31.222Z,18.20
2022-11-17T19:33:33.522Z,13.55
2022-11-17T19:36:35.242Z,15.88
2022-11-17T19:39:36.877Z,20.15
2022-11-17T19:42:38.494Z,14.85
2022-11-17T19:45:40.131Z,17.70
2022-11-17T19:48:42.510Z,18.02
2022-11-17T19:51:44.335Z,17.08
2022-11-17T19:54:45.862Z,13.68
2022-11-17T19:57:47.424Z,15.57
2022-11-17T20:00:49.008Z,11.95
2022-11-17T20:03:50.887Z,9.80
2022-11-17T20:06:52.460Z,12.48
2022-11-17T20:09:54.023Z,10.65
2022-11-17T20:12:55.600Z,9.10
2022-11-17T20:15:57.492Z,12.55
2022-11-17T20:19:00.331Z,13.77
2022-11-17T20:22:01.895Z,16.88
2022-11-17T20:25:05.721Z,5.13
2022-11-17T20:28:08.495Z,17.20
2022-11-17T20:31:17.528Z,18.60
2022-11-17T20:34:19.658Z,10.82
2022-11-17T20:37:21.221Z,16.02
2022-11-17T20:40:22.903Z,16.02
2022-11-17T20:43:27.716Z,9.68
2022-11-17T20:46:29.302Z,11.57
2022-11-17T20:49:30.999Z,5.65
2022-11-17T20:52:32.580Z,12.32
2022-11-17T20:55:38.269Z,11.20
2022-11-17T20:58:40.170Z,12.30
2022-11-17T21:01:41.886Z,7.63
2022-11-17T21:04:43.496Z,9.30
2022-11-17T21:07:45.115Z,2.08
2022-11-17T21:10:46.869Z,8.00
2022-11-17T21:13:51.587Z,4.70
2022-11-17T21:16:54.073Z,5.25
2022-11-17T21:19:55.675Z,8.00
2022-11-17T21:22:57.331Z,3.45
2022-11-17T21:26:02.426Z,6.00
2022-11-17T21:29:06.640Z,4.82
2022-11-17T21:32:08.686Z,3.65
2022-11-17T21:35:10.321Z,9.13
2022-11-17T21:38:12.030Z,1.58
2022-11-17T21:41:15.109Z,1.33
2022-11-17T21:44:16.893Z,3.40
2022-11-17T21:47:20.138Z,7.70
2022-11-17T21:50:21.686Z,3.90
2022-11-17T21:53:23.301Z,2.13
2022-11-17T21:56:26.757Z,1.08
2022-11-17T21:59:28.374Z,1.63
2022-11-17T22:02:29.915Z,5.25
2022-11-17T22:05:31.511Z,4.97
2022-11-17T22:08:34.396Z,5.10
2022-11-17T22:11:37.514Z,4.53
2022-11-17T22:14:39.470Z,1.77
2022-11-17T22:17:41.068Z,5.97
2022-11-17T22:20:42.646Z,1.27
2022-11-17T22:23:44.253Z,10.52
2022-11-17T22:26:46.169Z,1.67
2022-11-17T22:29:47.992Z,7.68
2022-11-17T22:32:49.575Z,7.55
2022-11-17T22:35:51.311Z,5.38
2022-11-17T22:38:52.948Z,7.93
2022-11-17T22:41:54.550Z,7.20
2022-11-17T22:44:56.084Z,4.07
2022-11-17T22:47:57.643Z,5.72
2022-11-17T22:51:00.114Z,14.25
2022-11-17T22:54:01.842Z,7.60
2022-11-17T22:57:03.557Z,5.97
2022-11-17T23:00:05.852Z,3.45
2022-11-17T23:03:07.473Z,7.03
2022-11-17T23:06:09.019Z,7.65
2022-11-17T23:09:10.924Z,8.45
2022-11-17T23:12:12.512Z,5.47
2022-11-17T23:15:14.060Z,8.20
2022-11-17T23:18:15.582Z,6.07
2022-11-17T23:21:17.237Z,6.85
2022-11-17T23:24:18.810Z,9.10
2022-11-17T23:27:20.377Z,8.93
2022-11-17T23:30:21.923Z,5.88
2022-11-17T23:33:23.523Z,9.13
2022-11-17T23:36:25.149Z,10.27
2022-11-17T23:39:26.735Z,20.30
2022-11-17T23:42:32.274Z,9.93
2022-11-17T23:45:34.282Z,5.67
2022-11-17T23:48:35.796Z,4.90
2022-11-17T23:51:37.419Z,10.70
2022-11-17T23:54:38.962Z,6.55
2022-11-17T23:57:40.581Z,7.15
